Time;durP1;ratioP1;P1;durP2;ratioP2;P2;SDS_P1;SDS_P2;PMS_P1;PMS_P2;Temp;Humidity;BMP_temperature;BMP_pressure;BME280_temperature;BME280_humidity;BME280_pressure;Samples;Min_cycle;Max_cycle;Signal;HPM_P1;HPM_P2
2021/12/13 00:00:48;;;;;;;;;;;;;;;9.36;100.00;102446.34;5085964;28;20624;-81
2021/12/13 00:03:30;;;;;;;38.40;27.25;;;;;;;9.22;100.00;102438.22;5091568;28;19961;-81
2021/12/13 00:06:00;;;;;;;41.05;27.77;;;;;;;9.23;100.00;102439.09;5084477;28;20028;-81
2021/12/13 00:08:34;;;;;;;38.10;28.15;;;;;;;9.21;100.00;102440.94;5090962;28;20024;-81
2021/12/13 00:11:08;;;;;;;37.50;27.13;;;;;;;9.22;100.00;102440.00;5091285;28;20131;-81
2021/12/13 00:13:43;;;;;;;36.55;26.88;;;;;;;9.21;100.00;102439.16;5106361;27;20483;-81
2021/12/13 00:16:10;;;;;;;33.65;26.73;;;;;;;9.18;100.00;102435.78;5089556;28;20511;-81
2021/12/13 00:18:43;;;;;;;39.10;27.35;;;;;;;9.18;100.00;102434.00;5082135;28;20181;-81
2021/12/13 00:21:27;;;;;;;39.03;26.55;;;;;;;9.18;100.00;102428.75;5092206;28;20139;-81
2021/12/13 00:24:04;;;;;;;33.47;25.58;;;;;;;9.18;100.00;102439.25;5090871;28;20077;-81
2021/12/13 00:26:34;;;;;;;36.58;25.92;;;;;;;9.17;100.00;102439.31;5091834;28;20036;-81
2021/12/13 00:29:12;;;;;;;32.92;24.38;;;;;;;9.19;100.00;102446.22;5083504;28;20064;-81
2021/12/13 00:31:47;;;;;;;35.38;24.77;;;;;;;9.17;100.00;102445.41;5090710;28;20028;-81
2021/12/13 00:34:25;;;;;;;32.30;23.33;;;;;;;9.09;100.00;102431.78;5089620;28;20110;-78
2021/12/13 00:36:58;;;;;;;35.97;24.25;;;;;;;9.08;100.00;102435.31;5092808;28;20079;-81
2021/12/13 00:39:28;;;;;;;37.00;24.83;;;;;;;9.08;100.00;102440.56;5090813;28;20028;-82
2021/12/13 00:41:54;;;;;;;33.83;23.95;;;;;;;9.06;100.00;102445.03;5090207;28;20377;-82
2021/12/13 00:44:27;;;;;;;36.20;24.48;;;;;;;9.05;100.00;102443.31;5090043;28;20381;-82
2021/12/13 00:46:54;;;;;;;38.08;24.88;;;;;;;9.05;100.00;102456.44;5088981;28;20020;-82
2021/12/13 00:49:24;;;;;;;38.30;25.13;;;;;;;9.05;100.00;102459.94;5089641;28;20046;-82
2021/12/13 00:51:52;;;;;;;35.92;25.25;;;;;;;9.01;100.00;102450.47;5080426;28;20031;-82
2021/12/13 00:54:25;;;;;;;41.28;25.08;;;;;;;9.03;100.00;102446.00;5090243;28;20388;-82
2021/12/13 00:57:07;;;;;;;34.90;25.83;;;;;;;9.07;100.00;102467.75;5089991;28;20102;-82
2021/12/13 00:59:38;;;;;;;35.65;26.30;;;;;;;9.00;100.00;102458.41;5090057;28;20024;-82
2021/12/13 01:02:14;;;;;;;37.25;26.30;;;;;;;9.03;100.00;102463.53;5090305;28;20023;-78
2021/12/13 01:04:54;;;;;;;40.33;26.25;;;;;;;8.97;100.00;102453.28;5090403;28;20039;-82
2021/12/13 01:08:14;;;;;;;39.72;26.20;;;;;;;9.05;100.00;102464.31;5082203;28;20023;-82
2021/12/13 01:10:40;;;;;;;38.63;26.25;;;;;;;9.00;100.00;102469.78;5015592;28;20636;-78
2021/12/13 01:13:23;;;;;;;43.95;26.60;;;;;;;8.99;100.00;102467.22;5069108;28;20042;-77
2021/12/13 01:16:10;;;;;;;40.80;27.50;;;;;;;8.94;100.00;102463.91;5090411;28;20413;-83
2021/12/13 01:19:32;;;;;;;40.28;26.63;;;;;;;8.96;100.00;102473.44;5082855;28;20104;-83
2021/12/13 01:21:41;;;;;;;42.38;26.15;;;;;;;8.89;100.00;102461.50;5075845;28;20515;-83
2021/12/13 01:24:12;;;;;;;38.90;25.13;;;;;;;8.90;100.00;102464.97;5086644;28;20040;-80
2021/12/13 01:26:44;;;;;;;43.60;27.10;;;;;;;8.93;100.00;102478.81;5090019;28;20023;-83
2021/12/13 01:29:14;;;;;;;45.70;26.42;;;;;;;8.90;100.00;102478.94;5090403;28;20510;-83
2021/12/13 01:31:55;;;;;;;45.22;26.27;;;;;;;8.93;100.00;102478.81;5089564;28;20044;-83
2021/12/13 01:34:24;;;;;;;43.90;26.70;;;;;;;8.85;100.00;102474.81;5082348;28;20024;-83
2021/12/13 01:37:12;;;;;;;43.42;27.13;;;;;;;8.87;100.00;102478.22;5088971;28;20462;-83
2021/12/13 01:39:42;;;;;;;43.15;27.17;;;;;;;8.87;100.00;102475.59;5083949;28;20024;-82
2021/12/13 01:42:15;;;;;;;46.72;28.55;;;;;;;8.83;100.00;102488.00;5089583;28;20031;-82
2021/12/13 01:44:47;;;;;;;46.35;27.98;;;;;;;8.83;100.00;102479.25;5088027;28;20192;-81
2021/12/13 01:47:19;;;;;;;46.05;28.67;;;;;;;8.80;100.00;102488.09;5089283;28;20611;-81
2021/12/13 01:49:53;;;;;;;48.63;28.58;;;;;;;8.84;100.00;102494.94;5088385;28;20028;-82
2021/12/13 01:52:23;;;;;;;49.47;28.27;;;;;;;8.82;100.00;102498.56;5087892;28;20034;-81
2021/12/13 01:54:51;;;;;;;50.88;28.52;;;;;;;8.82;100.00;102502.03;5088804;28;20057;-81
2021/12/13 01:57:27;;;;;;;44.35;28.10;;;;;;;8.78;100.00;102495.16;5082474;28;20033;-81
2021/12/13 02:00:17;;;;;;;47.15;28.73;;;;;;;8.74;100.00;102494.44;5088156;28;20144;-81
2021/12/13 02:02:45;;;;;;;49.13;28.45;;;;;;;8.79;100.00;102491.63;5083622;28;20024;-82
2021/12/13 02:05:18;;;;;;;49.88;29.08;;;;;;;8.73;100.00;102497.97;5089977;28;20099;-81
2021/12/13 02:07:48;;;;;;;46.45;29.15;;;;;;;8.79;100.00;102505.59;5087236;28;20027;-84
2021/12/13 02:10:16;;;;;;;51.45;29.60;;;;;;;8.72;100.00;102491.03;5088735;28;20476;-82
2021/12/13 02:12:44;;;;;;;47.75;30.30;;;;;;;8.76;100.00;102508.34;5089876;28;20057;-82
2021/12/13 02:17:57;;;;;;;51.78;30.63;;;;;;;8.69;100.00;102495.53;5089531;28;20050;-82
2021/12/13 02:20:37;;;;;;;49.38;30.10;;;;;;;8.70;100.00;102482.34;5087518;28;20055;-81
2021/12/13 02:23:05;;;;;;;51.08;31.05;;;;;;;8.70;100.00;102477.09;5089139;28;20032;-82
2021/12/13 02:25:57;;;;;;;50.25;30.33;;;;;;;8.76;100.00;102487.34;5088744;28;20028;-82
2021/12/13 02:28:29;;;;;;;48.80;30.00;;;;;;;8.76;100.00;102492.59;5087541;28;20027;-81
2021/12/13 02:31:03;;;;;;;46.45;29.60;;;;;;;8.70;100.00;102477.09;5089379;28;20435;-82
2021/12/13 02:33:38;;;;;;;45.25;29.08;;;;;;;8.69;100.00;102475.41;5081436;28;20019;-82
2021/12/13 02:36:14;;;;;;;50.85;29.73;;;;;;;8.69;100.00;102493.78;5088976;28;20048;-82
2021/12/13 02:38:47;;;;;;;50.78;29.83;;;;;;;8.72;100.00;102506.75;5081006;28;20074;-82
2021/12/13 02:41:13;;;;;;;;;;;;;;;8.81;100.00;102499.47;5088930;28;20464;-79
2021/12/13 02:43:43;;;;;;;51.45;30.00;;;;;;;8.74;100.00;102509.34;5080829;28;19918;-79
2021/12/13 02:46:08;;;;;;;52.85;31.10;;;;;;;8.66;100.00;102496.53;5089576;28;20034;-82
2021/12/13 02:48:44;;;;;;;44.85;29.13;;;;;;;8.64;100.00;102493.09;5087640;28;20032;-81
2021/12/13 02:51:16;;;;;;;45.72;29.92;;;;;;;8.60;100.00;102486.28;5087637;28;20615;-82
2021/12/13 02:53:48;;;;;;;50.85;30.17;;;;;;;8.63;100.00;102499.25;5080210;28;20110;-82
2021/12/13 02:56:16;;;;;;;49.35;29.83;;;;;;;8.59;100.00;102508.16;5088466;28;20032;-82
2021/12/13 02:58:43;;;;;;;50.20;29.25;;;;;;;8.59;100.00;102495.06;5089355;28;20336;-82
2021/12/13 03:01:27;;;;;;;50.47;30.60;;;;;;;8.68;100.00;102510.44;5091115;28;20519;-84
2021/12/13 03:03:58;;;;;;;46.83;28.80;;;;;;;8.59;100.00;102499.44;5084098;28;20200;-82
2021/12/13 03:06:27;;;;;;;49.85;30.98;;;;;;;8.54;100.00;102478.66;5083542;28;20108;-82
2021/12/13 03:08:59;;;;;;;53.67;31.38;;;;;;;8.61;100.00;102501.09;5090975;28;20034;-82
2021/12/13 03:11:31;;;;;;;46.17;29.23;;;;;;;8.57;100.00;102491.63;5092191;28;20020;-82
2021/12/13 03:14:22;;;;;;;48.47;29.73;;;;;;;8.61;100.00;102492.38;5099822;28;20337;-81
2021/12/13 03:17:06;;;;;;;50.22;31.23;;;;;;;8.61;100.00;102501.09;5091178;28;20131;-81
2021/12/13 03:19:38;;;;;;;50.78;29.27;;;;;;;8.58;100.00;102501.22;5091454;28;20545;-82
2021/12/13 03:22:09;;;;;;;49.45;30.50;;;;;;;8.58;100.00;102503.84;5092357;28;20024;-81
2021/12/13 03:24:34;;;;;;;51.60;29.25;;;;;;;8.55;100.00;102506.59;5087634;28;20424;-82
2021/12/13 03:27:25;;;;;;;48.00;30.20;;;;;;;8.53;100.00;102495.31;5092512;28;20043;-81
2021/12/13 03:30:09;;;;;;;49.25;29.98;;;;;;;8.52;100.00;102492.75;5092112;28;20016;-82
2021/12/13 03:32:56;;;;;;;47.58;29.40;;;;;;;8.56;100.00;102494.31;5091080;28;20032;-82
2021/12/13 03:35:31;;;;;;;48.42;30.45;;;;;;;8.52;100.00;102504.09;5091286;28;20107;-81
2021/12/13 03:38:14;;;;;;;49.03;29.98;;;;;;;8.45;100.00;102492.13;5091576;28;20557;-82
2021/12/13 03:40:40;;;;;;;;;;;;;;;8.58;100.00;102503.00;5090508;28;20098;-81
2021/12/13 03:43:10;;;;;;;53.92;30.85;;;;;;;8.45;100.00;102495.59;5088115;28;19912;-82
2021/12/13 03:45:44;;;;;;;48.83;29.58;;;;;;;8.50;100.00;102503.28;5090840;28;20498;-82
2021/12/13 03:48:15;;;;;;;51.38;30.75;;;;;;;8.48;100.00;102502.50;5090836;28;20024;-81
2021/12/13 03:50:47;;;;;;;53.63;31.73;;;;;;;8.47;100.00;102503.41;5091439;28;20045;-82
2021/12/13 03:53:16;;;;;;;49.90;29.90;;;;;;;8.45;100.00;102502.63;5091203;28;20050;-82
2021/12/13 03:55:48;;;;;;;52.60;29.77;;;;;;;8.43;100.00;102509.69;5091486;28;20028;-81
2021/12/13 03:58:16;;;;;;;48.57;30.70;;;;;;;8.45;100.00;102508.72;5085280;28;20051;-82
2021/12/13 04:00:49;;;;;;;52.63;29.73;;;;;;;8.42;100.00;102507.97;5091277;28;20559;-82
2021/12/13 04:03:17;;;;;;;51.53;30.15;;;;;;;8.38;100.00;102496.72;5091663;28;20371;-82
2021/12/13 04:05:43;;;;;;;52.80;29.92;;;;;;;8.42;100.00;102507.97;5090756;28;20097;-78
2021/12/13 04:08:12;;;;;;;49.78;28.88;;;;;;;8.38;100.00;102501.13;5092281;28;20020;-82
2021/12/13 04:10:41;;;;;;;53.25;30.63;;;;;;;8.44;100.00;102506.16;5091265;28;20028;-82
2021/12/13 04:13:13;;;;;;;51.25;29.58;;;;;;;8.39;100.00;102497.56;5092644;28;20035;-82
2021/12/13 04:21:24;;;;;;;50.85;28.45;;;;;;;8.39;100.00;102508.06;5084840;28;20097;-82
2021/12/13 04:23:52;;;;;;;51.20;29.02;;;;;;;8.39;100.00;102508.06;5090901;28;20064;-81
2021/12/13 04:26:18;;;;;;;48.42;28.35;;;;;;;8.39;100.00;102510.69;5072660;28;20422;-82
2021/12/13 04:28:48;;;;;;;52.88;29.80;;;;;;;8.41;100.00;102519.38;5090635;28;20099;-82
2021/12/13 04:31:18;;;;;;;46.33;28.67;;;;;;;8.40;100.00;102515.03;5083484;28;20028;-82
2021/12/13 04:33:47;;;;;;;49.85;27.67;;;;;;;8.40;100.00;102521.13;5082470;28;20477;-82
2021/12/13 04:36:27;;;;;;;47.92;28.23;;;;;;;8.37;100.00;102515.16;5089163;28;20065;-81
2021/12/13 04:39:01;;;;;;;46.35;27.77;;;;;;;8.36;100.00;102508.19;5090676;28;20509;-82
2021/12/13 04:41:26;;;;;;;48.38;27.38;;;;;;;8.40;100.00;102515.03;5089521;28;20039;-82
2021/12/13 04:43:58;;;;;;;49.58;27.50;;;;;;;8.41;100.00;102508.91;5090484;28;20020;-82
2021/12/13 04:46:27;;;;;;;50.67;27.57;;;;;;;8.34;100.00;102507.41;5090133;28;20067;-82
2021/12/13 04:48:57;;;;;;;45.53;26.42;;;;;;;8.38;100.00;102511.59;5086298;28;20130;-82
2021/12/13 04:51:27;;;;;;;47.55;28.10;;;;;;;8.32;100.00;102511.81;5088609;28;20038;-83
2021/12/13 04:53:53;;;;;;;46.83;26.92;;;;;;;8.31;100.00;102510.09;5090390;28;20524;-82
2021/12/13 04:56:26;;;;;;;44.90;26.98;;;;;;;8.37;100.00;102515.16;5082179;28;20391;-83
2021/12/13 04:58:55;;;;;;;47.13;26.67;;;;;;;8.33;100.00;102500.41;5091270;28;20024;-83
2021/12/13 05:01:23;;;;;;;42.53;25.77;;;;;;;8.37;100.00;102504.66;5079744;28;20024;-82
2021/12/13 05:03:55;;;;;;;41.28;25.88;;;;;;;8.35;100.00;102496.00;5083752;28;20020;-82
2021/12/13 05:06:25;;;;;;;40.67;25.25;;;;;;;8.30;100.00;102487.41;5083093;28;20030;-82
2021/12/13 05:08:54;;;;;;;43.60;25.63;;;;;;;8.31;100.00;102502.22;5088068;28;20020;-83
2021/12/13 05:11:23;;;;;;;43.63;25.55;;;;;;;8.33;100.00;102509.16;5090021;28;20525;-82
2021/12/13 05:13:53;;;;;;;40.05;24.88;;;;;;;8.34;100.00;102515.25;5094460;28;20028;-83
2021/12/13 05:16:28;;;;;;;42.90;25.00;;;;;;;8.30;100.00;102509.25;5088674;28;20048;-82
2021/12/13 05:18:55;;;;;;;44.00;24.85;;;;;;;8.34;100.00;102520.50;5090787;28;20356;-83
2021/12/13 05:21:34;;;;;;;44.33;24.92;;;;;;;8.31;100.00;102508.34;5087572;28;20027;-82
2021/12/13 05:24:04;;;;;;;40.13;24.48;;;;;;;8.30;100.00;102514.50;5086647;28;20149;-83
2021/12/13 05:26:37;;;;;;;42.92;25.15;;;;;;;8.34;100.00;102515.25;5090078;28;20028;-82
2021/12/13 05:29:27;;;;;;;38.67;24.33;;;;;;;8.35;100.00;102517.81;5090097;28;20071;-83
2021/12/13 05:32:05;;;;;;;35.75;22.85;;;;;;;8.29;100.00;102509.31;5084091;28;20447;-82
2021/12/13 05:34:47;;;;;;;39.30;23.35;;;;;;;8.31;100.00;102518.81;5088941;28;20032;-82
2021/12/13 05:37:16;;;;;;;41.43;23.33;;;;;;;8.26;100.00;102509.44;5088928;28;20075;-82
2021/12/13 05:40:20;;;;;;;35.05;22.02;;;;;;;8.35;100.00;102522.22;5082992;28;20138;-83
2021/12/13 05:42:54;;;;;;;38.38;22.75;;;;;;;8.26;100.00;102512.03;5059320;28;20050;-83
2021/12/13 05:45:29;;;;;;;35.90;22.10;;;;;;;8.27;100.00;102509.38;5088778;28;20024;-83
2021/12/13 05:48:09;;;;;;;34.75;21.30;;;;;;;8.31;100.00;102515.34;5082146;28;20031;-83
2021/12/13 05:50:40;;;;;;;38.53;23.40;;;;;;;8.29;100.00;102518.03;5088419;28;20032;-82
2021/12/13 05:53:16;;;;;;;36.45;21.40;;;;;;;8.24;100.00;102498.13;5089880;28;20039;-83
2021/12/13 05:55:59;;;;;;;37.08;22.27;;;;;;;8.30;100.00;102516.25;5081555;28;20028;-83
2021/12/13 05:58:45;;;;;;;35.70;21.65;;;;;;;8.27;100.00;102513.75;5087253;28;20022;-83
2021/12/13 06:01:36;;;;;;;37.10;20.95;;;;;;;8.32;100.00;102527.53;5081815;28;20284;-83
2021/12/13 06:04:07;;;;;;;36.05;21.33;;;;;;;8.29;100.00;102527.66;5087349;28;20144;-83
2021/12/13 06:06:54;;;;;;;34.38;20.38;;;;;;;8.26;100.00;102519.91;5088269;28;20476;-83
2021/12/13 06:09:41;;;;;;;33.35;20.20;;;;;;;8.30;100.00;102534.63;5082136;28;20039;-79
2021/12/13 06:12:14;;;;;;;36.22;19.77;;;;;;;8.23;100.00;102522.66;5087830;28;20107;-83
2021/12/13 06:14:39;;;;;;;32.28;20.40;;;;;;;8.27;100.00;102526.88;5091422;28;20314;-83
2021/12/13 06:17:09;;;;;;;33.28;20.17;;;;;;;8.20;100.00;102517.53;5089735;28;20028;-82
2021/12/13 06:19:34;;;;;;;33.08;19.98;;;;;;;8.26;100.00;102527.78;5087126;28;20028;-83
2021/12/13 06:22:21;;;;;;;30.17;19.95;;;;;;;8.21;100.00;102519.22;5089622;28;20035;-83
2021/12/13 06:25:14;;;;;;;30.88;19.10;;;;;;;8.22;100.00;102523.56;5084158;28;20027;-83
2021/12/13 06:27:46;;;;;;;31.13;18.98;;;;;;;8.24;100.00;102535.69;5080952;28;20196;-83
2021/12/13 06:30:30;;;;;;;30.25;19.42;;;;;;;8.22;100.00;102532.28;5086836;28;20099;-83
2021/12/13 06:32:58;;;;;;;34.38;19.13;;;;;;;8.25;100.00;102536.56;5091494;28;20105;-83
2021/12/13 06:35:50;;;;;;;27.88;18.23;;;;;;;8.26;100.00;102546.13;5093046;28;20020;-82
2021/12/13 06:38:24;;;;;;;28.67;18.35;;;;;;;8.25;100.00;102544.44;5093611;28;20035;-83
2021/12/13 06:40:53;;;;;;;30.77;19.35;;;;;;;8.21;100.00;102545.44;5084581;28;20488;-83
2021/12/13 06:43:28;;;;;;;27.83;18.23;;;;;;;8.21;100.00;102548.06;5093331;28;20333;-83
2021/12/13 06:45:56;;;;;;;30.23;18.38;;;;;;;8.16;100.00;102541.25;5085803;28;20117;-83
2021/12/13 06:48:36;;;;;;;30.83;18.70;;;;;;;8.16;100.00;102545.63;5086244;28;20567;-83
2021/12/13 06:51:03;;;;;;;28.77;18.63;;;;;;;8.16;100.00;102545.63;5086760;28;20027;-83
2021/12/13 06:53:29;;;;;;;28.20;17.38;;;;;;;8.14;100.00;102544.81;5092607;28;20012;-83
2021/12/13 06:55:54;;;;;;;29.75;18.50;;;;;;;8.20;100.00;102560.34;5092247;28;20032;-83
2021/12/13 06:58:27;;;;;;;31.30;18.02;;;;;;;8.20;100.00;102556.84;5092480;28;20024;-82
2021/12/13 07:00:56;;;;;;;27.35;17.63;;;;;;;8.20;100.00;102559.47;5092355;28;20049;-82
2021/12/13 07:03:32;;;;;;;26.60;17.55;;;;;;;8.17;100.00;102563.06;5089532;28;20081;-82
2021/12/13 07:06:00;;;;;;;30.08;17.92;;;;;;;8.16;100.00;102562.22;5085115;28;20251;-83
2021/12/13 07:08:33;;;;;;;29.05;16.92;;;;;;;8.17;100.00;102566.53;5091547;28;20020;-82
2021/12/13 07:11:13;;;;;;;28.73;17.23;;;;;;;8.15;100.00;102560.50;5091103;28;20023;-79
2021/12/13 07:13:43;;;;;;;24.85;16.73;;;;;;;8.16;100.00;102564.84;5095410;28;20033;-83
2021/12/13 07:16:26;;;;;;;25.00;16.52;;;;;;;8.16;100.00;102570.06;5091485;28;20494;-83
2021/12/13 07:19:01;;;;;;;27.08;17.23;;;;;;;8.15;100.00;102562.25;5091110;28;20024;-83
2021/12/13 07:21:40;;;;;;;28.92;17.00;;;;;;;8.16;100.00;102569.22;5083446;28;20107;-83
2021/12/13 07:24:15;;;;;;;29.02;17.90;;;;;;;8.16;100.00;102570.06;5089399;28;20510;-83
2021/12/13 07:27:05;;;;;;;24.92;16.75;;;;;;;8.09;100.00;102560.72;5092445;28;20072;-82
2021/12/13 07:29:44;;;;;;;30.25;17.30;;;;;;;8.15;100.00;102575.38;5090126;28;20027;-82
2021/12/13 07:32:25;;;;;;;26.33;16.52;;;;;;;8.14;100.00;102574.53;5091216;28;20081;-83
2021/12/13 07:35:16;;;;;;;26.75;16.77;;;;;;;8.16;100.00;102575.31;5092384;28;20024;-83
2021/12/13 07:37:47;;;;;;;28.40;17.25;;;;;;;8.15;100.00;102583.25;5083140;28;20040;-82
2021/12/13 07:40:25;;;;;;;28.45;17.13;;;;;;;8.16;100.00;102580.56;5092200;28;20142;-83
2021/12/13 07:43:09;;;;;;;29.48;16.95;;;;;;;8.15;100.00;102578.84;5092170;28;20102;-83
2021/12/13 07:45:43;;;;;;;28.48;17.52;;;;;;;8.18;100.00;102585.75;5091342;28;20052;-83
2021/12/13 07:48:18;;;;;;;27.83;17.90;;;;;;;8.13;100.00;102577.19;5092596;28;20391;-84
2021/12/13 07:50:56;;;;;;;25.65;16.63;;;;;;;8.16;100.00;102583.19;5083747;28;20017;-83
2021/12/13 07:53:25;;;;;;;24.60;16.80;;;;;;;8.10;100.00;102575.53;5089725;28;20039;-82
2021/12/13 07:55:54;;;;;;;25.30;16.63;;;;;;;8.12;100.00;102586.84;5088859;28;20048;-83
2021/12/13 07:58:45;;;;;;;24.73;16.13;;;;;;;8.18;100.00;102598.84;5089333;28;20027;-83
2021/12/13 08:01:15;;;;;;;29.63;16.83;;;;;;;8.16;100.00;102601.53;5088940;28;20031;-83
2021/12/13 08:03:55;;;;;;;26.40;16.60;;;;;;;8.16;100.00;102598.06;5088961;28;20444;-84
2021/12/13 08:06:25;;;;;;;23.85;16.08;;;;;;;8.16;100.00;102598.06;5088649;28;20093;-79
2021/12/13 08:08:59;;;;;;;26.08;16.55;;;;;;;8.16;100.00;102591.06;5089609;28;20073;-83
2021/12/13 08:12:02;;;;;;;22.85;15.70;;;;;;;8.22;100.00;102586.50;5087581;28;20434;-83
2021/12/13 08:14:32;;;;;;;26.83;17.38;;;;;;;8.18;100.00;102598.84;5067855;28;20036;-82
2021/12/13 08:17:18;;;;;;;22.52;15.55;;;;;;;8.18;100.00;102597.09;5090091;28;20036;-83
2021/12/13 08:19:52;;;;;;;23.63;16.48;;;;;;;8.15;100.00;102593.72;5088450;28;20039;-83
2021/12/13 08:22:29;;;;;;;26.58;16.38;;;;;;;8.16;100.00;102596.28;5088694;28;20043;-83
2021/12/13 08:24:59;;;;;;;21.65;15.02;;;;;;;8.18;100.00;102607.59;5089808;28;20460;-83
2021/12/13 08:27:30;;;;;;;24.15;15.30;;;;;;;8.18;100.00;102596.25;5086896;28;20027;-83
2021/12/13 08:30:07;;;;;;;22.27;15.77;;;;;;;8.20;100.00;102601.44;5088149;28;20454;-83
2021/12/13 08:32:33;;;;;;;20.52;14.85;;;;;;;8.14;100.00;102582.38;5088291;28;20032;-83
2021/12/13 08:35:00;;;;;;;24.35;15.23;;;;;;;8.13;100.00;102588.53;5090173;28;20107;-83
2021/12/13 08:37:41;;;;;;;22.42;15.38;;;;;;;8.20;100.00;102594.41;5089465;28;20042;-83
2021/12/13 08:40:07;;;;;;;23.45;15.13;;;;;;;8.21;100.00;102597.91;5101062;28;20024;-79
2021/12/13 08:42:38;;;;;;;22.55;15.48;;;;;;;8.18;100.00;102591.84;5088342;28;20081;-83
2021/12/13 08:45:16;;;;;;;24.33;14.95;;;;;;;8.15;100.00;102588.50;5088165;28;20031;-83
2021/12/13 08:47:45;;;;;;;20.50;14.35;;;;;;;8.21;100.00;102598.75;5089463;28;20020;-83
2021/12/13 08:50:36;;;;;;;21.52;14.80;;;;;;;8.17;100.00;102592.75;5090761;28;20114;-83
2021/12/13 08:53:19;;;;;;;22.55;15.02;;;;;;;8.21;100.00;102595.28;5080183;28;20492;-82
2021/12/13 08:55:54;;;;;;;21.90;15.10;;;;;;;8.16;100.00;102593.66;5088836;28;20032;-82
2021/12/13 08:58:21;;;;;;;24.40;14.90;;;;;;;8.19;100.00;102605.81;5089268;28;20042;-82
2021/12/13 09:01:06;;;;;;;21.90;15.45;;;;;;;8.24;100.00;102608.28;5089318;28;20035;-81
2021/12/13 09:03:50;;;;;;;23.10;15.68;;;;;;;8.20;100.00;102597.03;5086210;28;20257;-82
2021/12/13 09:06:18;;;;;;;20.95;14.90;;;;;;;8.23;100.00;102609.19;5089639;28;20024;-82
2021/12/13 09:08:48;;;;;;;23.92;15.27;;;;;;;8.21;100.00;102603.13;5091990;28;20152;-82
2021/12/13 09:11:14;;;;;;;22.45;15.27;;;;;;;8.25;100.00;102610.84;5090220;28;20036;-82
2021/12/13 09:13:49;;;;;;;21.17;16.08;;;;;;;8.24;100.00;102609.13;5093622;28;20032;-79
2021/12/13 09:16:20;;;;;;;22.13;15.55;;;;;;;8.17;100.00;102603.25;5089103;28;20032;-84
2021/12/13 09:19:02;;;;;;;22.13;15.32;;;;;;;8.21;100.00;102606.63;5086990;28;20034;-83
2021/12/13 09:21:28;;;;;;;22.17;16.20;;;;;;;8.26;100.00;102609.91;5099154;28;20031;-82
2021/12/13 09:23:54;;;;;;;22.55;15.93;;;;;;;8.26;100.00;102611.69;5125910;27;20289;-83
2021/12/13 09:26:25;;;;;;;24.10;16.80;;;;;;;8.27;100.00;102616.03;5109016;28;20019;-83
2021/12/13 09:29:05;;;;;;;22.80;16.85;;;;;;;8.29;100.00;102620.31;5109875;28;20023;-82
2021/12/13 09:31:38;;;;;;;22.45;16.52;;;;;;;8.25;100.00;102625.72;5109901;28;20021;-82
2021/12/13 09:34:15;;;;;;;24.95;16.08;;;;;;;8.29;100.00;102629.94;5106152;28;20055;-82
2021/12/13 09:36:43;;;;;;;22.35;15.75;;;;;;;8.28;100.00;102641.34;5094763;28;20035;-77
2021/12/13 09:39:20;;;;;;;22.38;16.42;;;;;;;8.28;100.00;102647.44;5102814;28;20026;-82
2021/12/13 09:42:00;;;;;;;23.75;16.02;;;;;;;8.29;100.00;102645.66;5083564;28;20110;-83
2021/12/13 09:44:32;;;;;;;21.48;15.48;;;;;;;8.28;100.00;102651.81;5087308;28;20051;-83
2021/12/13 09:47:10;;;;;;;24.43;16.10;;;;;;;8.29;100.00;102645.66;5100680;28;20024;-82
2021/12/13 09:49:47;;;;;;;20.92;15.43;;;;;;;8.30;100.00;102663.13;5086331;28;20070;-83
2021/12/13 09:52:15;;;;;;;20.75;15.07;;;;;;;8.30;100.00;102669.22;5089757;28;20034;-82
2021/12/13 09:55:04;;;;;;;20.35;15.48;;;;;;;8.25;100.00;102671.16;5088803;28;20024;-82
2021/12/13 09:57:39;;;;;;;21.77;14.63;;;;;;;8.30;100.00;102679.69;5085524;28;20050;-82
2021/12/13 10:00:27;;;;;;;22.00;15.23;;;;;;;8.29;100.00;102670.13;5087885;28;20052;-82
2021/12/13 10:02:57;;;;;;;20.73;15.25;;;;;;;8.30;100.00;102684.94;5088893;28;20034;-82
2021/12/13 10:05:28;;;;;;;21.45;14.57;;;;;;;8.27;100.00;102677.19;5087940;28;20032;-82
2021/12/13 10:07:58;;;;;;;21.08;13.70;;;;;;;8.28;100.00;102681.53;5089116;28;20032;-82
2021/12/13 10:10:39;;;;;;;20.55;14.05;;;;;;;8.25;100.00;102672.91;5086343;28;20027;-82
2021/12/13 10:13:09;;;;;;;17.85;13.50;;;;;;;8.29;100.00;102677.13;5082812;28;20369;-79
2021/12/13 10:15:42;;;;;;;18.25;13.02;;;;;;;8.25;100.00;102673.78;5088240;28;20027;-83
2021/12/13 10:18:09;;;;;;;;;;;;;;;8.39;100.00;102670.69;5088028;28;20724;-82
2021/12/13 10:20:49;;;;;;;17.85;13.05;;;;;;;8.32;100.00;102663.91;5087591;28;20011;-83
2021/12/13 10:23:19;;;;;;;17.65;13.13;;;;;;;8.26;100.00;102661.50;5090592;28;20051;-77
2021/12/13 10:25:50;;;;;;;16.38;12.45;;;;;;;8.32;100.00;102663.91;5088668;28;20026;-78
2021/12/13 10:28:25;;;;;;;17.15;12.65;;;;;;;8.26;100.00;102664.13;5088187;28;20062;-83
2021/12/13 10:31:00;;;;;;;17.27;11.60;;;;;;;8.26;100.00;102659.75;5087261;28;20032;-77
2021/12/13 10:33:27;;;;;;;14.60;11.88;;;;;;;8.33;100.00;102665.63;5086094;28;20024;-82
2021/12/13 10:35:55;;;;;;;15.05;11.13;;;;;;;8.33;100.00;102670.88;5089347;28;20376;-82
2021/12/13 10:38:29;;;;;;;15.68;11.63;;;;;;;8.29;100.00;102657.00;5089015;28;20039;-82
2021/12/13 10:41:00;;;;;;;15.40;12.20;;;;;;;8.29;100.00;102658.78;5088594;28;20016;-84
2021/12/13 10:43:30;;;;;;;13.55;10.93;;;;;;;8.27;100.00;102650.13;5086970;28;20038;-84
2021/12/13 10:46:07;;;;;;;14.95;10.75;;;;;;;8.34;100.00;102656.88;5087732;28;20134;-85
2021/12/13 10:48:42;;;;;;;15.27;10.88;;;;;;;8.35;100.00;102653.34;5087610;28;20034;-84
2021/12/13 10:51:21;;;;;;;14.82;10.48;;;;;;;8.31;100.00;102651.72;5090977;28;20059;-84
2021/12/13 10:53:49;;;;;;;13.70;10.60;;;;;;;8.36;100.00;102655.06;5085363;28;20028;-84
2021/12/13 10:56:22;;;;;;;14.05;10.80;;;;;;;8.34;100.00;102649.00;5087593;28;20363;-85
2021/12/13 10:58:51;;;;;;;14.32;11.10;;;;;;;8.34;100.00;102651.63;5087442;28;20035;-84
2021/12/13 11:01:39;;;;;;;13.30;10.43;;;;;;;8.32;100.00;102653.44;5086498;28;20444;-84
2021/12/13 11:04:09;;;;;;;13.40;9.88;;;;;;;8.34;100.00;102655.13;5088157;28;20318;-84
2021/12/13 11:06:38;;;;;;;13.18;10.80;;;;;;;8.40;100.00;102659.28;5086709;28;20028;-84
2021/12/13 11:09:07;;;;;;;14.18;10.63;;;;;;;8.32;99.54;102638.53;5086913;28;21322;-84
2021/12/13 11:11:58;;;;;;;16.17;12.30;;;;;;;8.42;100.00;102652.25;5086108;28;20028;-84
2021/12/13 11:14:27;;;;;;;13.25;11.30;;;;;;;8.38;99.78;102648.84;5090402;28;20024;-85
2021/12/13 11:17:00;;;;;;;13.02;10.05;;;;;;;8.35;99.71;102642.84;5087099;28;20032;-84
2021/12/13 11:19:30;;;;;;;12.68;10.02;;;;;;;8.38;99.97;102638.34;5084608;28;20077;-84
2021/12/13 11:22:01;;;;;;;11.93;9.77;;;;;;;8.35;99.50;102627.13;5088132;28;20035;-79
2021/12/13 11:24:32;;;;;;;16.05;9.77;;;;;;;8.37;99.69;102631.41;5091923;28;20047;-80
2021/12/13 11:27:02;;;;;;;15.05;10.30;;;;;;;8.41;99.37;102632.16;5091654;28;20028;-83
2021/12/13 11:29:28;;;;;;;11.57;9.90;;;;;;;8.39;99.73;102632.19;5090082;28;20074;-84
2021/12/13 11:31:53;;;;;;;11.70;9.30;;;;;;;8.44;99.32;102642.56;5080753;28;20028;-83
2021/12/13 11:34:57;;;;;;;12.82;9.57;;;;;;;8.47;99.59;102647.69;5086340;28;20024;-83
2021/12/13 11:37:45;;;;;;;10.20;9.05;;;;;;;8.42;99.23;102632.13;5083773;28;20470;-83
2021/12/13 11:40:47;;;;;;;11.52;9.05;;;;;;;8.51;99.21;102640.56;5056130;28;20055;-83
2021/12/13 11:43:55;;;;;;;12.13;9.27;;;;;;;8.51;99.01;102640.56;5082286;28;20028;-84
2021/12/13 11:46:28;;;;;;;11.15;8.90;;;;;;;8.48;98.37;102644.16;5084899;28;20309;-83
2021/12/13 11:49:14;;;;;;;;;;;;;;;8.55;99.31;102643.00;5086429;28;20034;-84
2021/12/13 11:51:57;;;;;;;13.13;9.10;;;;;;;8.51;98.62;102641.41;5084905;28;19920;-84
2021/12/13 11:54:35;;;;;;;9.93;8.40;;;;;;;8.48;98.66;102638.91;5084639;28;20047;-84